sensor_id;sensor_type;location;lat;lon;timestamp;P1;durP1;ratioP1;P2;durP2;ratioP2
57947;SDS011;43754;56.992;24.292;2023-02-01T00:02:31;11.75;;;2.95;;
57947;SDS011;43754;56.992;24.292;2023-02-01T00:05:03;11.55;;;3.92;;
57947;SDS011;43754;56.992;24.292;2023-02-01T00:07:36;12.50;;;3.50;;
57947;SDS011;43754;56.992;24.292;2023-02-01T00:10:09;13.05;;;3.47;;
57947;SDS011;43754;56.992;24.292;2023-02-01T00:12:43;10.65;;;2.90;;
57947;SDS011;43754;56.992;24.292;2023-02-01T00:15:16;11.40;;;3.25;;
57947;SDS011;43754;56.992;24.292;2023-02-01T00:17:47;10.88;;;2.97;;
57947;SDS011;43754;56.992;24.292;2023-02-01T00:20:19;12.95;;;3.30;;
57947;SDS011;43754;56.992;24.292;2023-02-01T00:22:52;13.57;;;3.05;;
57947;SDS011;43754;56.992;24.292;2023-02-01T00:25:24;12.98;;;2.92;;
57947;SDS011;43754;56.992;24.292;2023-02-01T00:27:57;9.07;;;2.97;;
57947;SDS011;43754;56.992;24.292;2023-02-01T00:30:30;17.08;;;3.45;;
57947;SDS011;43754;56.992;24.292;2023-02-01T00:33:02;9.43;;;3.03;;
57947;SDS011;43754;56.992;24.292;2023-02-01T00:35:34;10.77;;;3.22;;
57947;SDS011;43754;56.992;24.292;2023-02-01T00:38:06;10.27;;;3.30;;
57947;SDS011;43754;56.992;24.292;2023-02-01T00:40:38;13.93;;;3.90;;
57947;SDS011;43754;56.992;24.292;2023-02-01T00:43:12;7.65;;;3.10;;
57947;SDS011;43754;56.992;24.292;2023-02-01T00:45:44;10.00;;;3.90;;
57947;SDS011;43754;56.992;24.292;2023-02-01T00:48:17;9.77;;;2.85;;
57947;SDS011;43754;56.992;24.292;2023-02-01T00:50:49;6.63;;;2.90;;
57947;SDS011;43754;56.992;24.292;2023-02-01T00:53:21;11.40;;;2.63;;
57947;SDS011;43754;56.992;24.292;2023-02-01T00:55:53;8.45;;;3.05;;
57947;SDS011;43754;56.992;24.292;2023-02-01T00:58:26;7.72;;;2.78;;
57947;SDS011;43754;56.992;24.292;2023-02-01T01:01:02;8.90;;;2.35;;
57947;SDS011;43754;56.992;24.292;2023-02-01T01:03:37;13.40;;;3.67;;
57947;SDS011;43754;56.992;24.292;2023-02-01T01:06:12;11.65;;;3.28;;
57947;SDS011;43754;56.992;24.292;2023-02-01T01:08:46;7.82;;;2.95;;
57947;SDS011;43754;56.992;24.292;2023-02-01T01:11:20;10.15;;;3.67;;
57947;SDS011;43754;56.992;24.292;2023-02-01T01:13:55;9.57;;;2.95;;
57947;SDS011;43754;56.992;24.292;2023-02-01T01:16:28;10.10;;;3.92;;
57947;SDS011;43754;56.992;24.292;2023-02-01T01:19:02;9.45;;;3.30;;
57947;SDS011;43754;56.992;24.292;2023-02-01T01:21:34;9.85;;;3.75;;
57947;SDS011;43754;56.992;24.292;2023-02-01T01:24:07;8.60;;;2.97;;
57947;SDS011;43754;56.992;24.292;2023-02-01T01:26:39;9.27;;;3.30;;
57947;SDS011;43754;56.992;24.292;2023-02-01T01:29:12;10.23;;;3.50;;
57947;SDS011;43754;56.992;24.292;2023-02-01T01:31:44;7.32;;;2.97;;
57947;SDS011;43754;56.992;24.292;2023-02-01T01:34:16;8.90;;;3.13;;
57947;SDS011;43754;56.992;24.292;2023-02-01T01:36:48;6.88;;;3.10;;
57947;SDS011;43754;56.992;24.292;2023-02-01T01:39:20;8.80;;;3.10;;
57947;SDS011;43754;56.992;24.292;2023-02-01T01:41:52;6.93;;;3.00;;
57947;SDS011;43754;56.992;24.292;2023-02-01T01:47:31;9.95;;;4.07;;
57947;SDS011;43754;56.992;24.292;2023-02-01T01:50:07;6.63;;;2.80;;
57947;SDS011;43754;56.992;24.292;2023-02-01T01:52:42;9.85;;;3.53;;
57947;SDS011;43754;56.992;24.292;2023-02-01T01:55:18;8.15;;;2.90;;
57947;SDS011;43754;56.992;24.292;2023-02-01T01:57:54;9.98;;;3.00;;
57947;SDS011;43754;56.992;24.292;2023-02-01T02:00:32;4.88;;;2.67;;
57947;SDS011;43754;56.992;24.292;2023-02-01T02:03:06;7.45;;;3.10;;
57947;SDS011;43754;56.992;24.292;2023-02-01T02:05:43;5.00;;;2.83;;
57947;SDS011;43754;56.992;24.292;2023-02-01T02:08:17;7.75;;;2.95;;
57947;SDS011;43754;56.992;24.292;2023-02-01T02:10:51;5.93;;;2.83;;
57947;SDS011;43754;56.992;24.292;2023-02-01T02:13:34;9.95;;;3.00;;
57947;SDS011;43754;56.992;24.292;2023-02-01T02:16:16;6.05;;;2.95;;
57947;SDS011;43754;56.992;24.292;2023-02-01T02:19:02;11.57;;;4.35;;
57947;SDS011;43754;56.992;24.292;2023-02-01T02:21:53;7.88;;;3.08;;
57947;SDS011;43754;56.992;24.292;2023-02-01T02:27:40;4.90;;;2.58;;
57947;SDS011;43754;56.992;24.292;2023-02-01T02:33:40;6.13;;;2.50;;
57947;SDS011;43754;56.992;24.292;2023-02-01T02:36:19;9.50;;;3.72;;
57947;SDS011;43754;56.992;24.292;2023-02-01T02:39:06;6.15;;;2.92;;
57947;SDS011;43754;56.992;24.292;2023-02-01T02:41:44;4.72;;;2.75;;
57947;SDS011;43754;56.992;24.292;2023-02-01T02:44:46;7.55;;;2.80;;
57947;SDS011;43754;56.992;24.292;2023-02-01T02:47:41;4.60;;;2.60;;
57947;SDS011;43754;56.992;24.292;2023-02-01T02:50:21;6.15;;;2.55;;
57947;SDS011;43754;56.992;24.292;2023-02-01T02:53:18;6.03;;;2.58;;
57947;SDS011;43754;56.992;24.292;2023-02-01T02:56:11;4.45;;;2.58;;
57947;SDS011;43754;56.992;24.292;2023-02-01T02:59:02;5.68;;;2.38;;
57947;SDS011;43754;56.992;24.292;2023-02-01T03:01:54;6.10;;;2.55;;
57947;SDS011;43754;56.992;24.292;2023-02-01T03:04:45;3.88;;;2.10;;
57947;SDS011;43754;56.992;24.292;2023-02-01T03:10:26;4.80;;;2.38;;
57947;SDS011;43754;56.992;24.292;2023-02-01T03:13:07;2.33;;;1.80;;
57947;SDS011;43754;56.992;24.292;2023-02-01T03:15:44;8.27;;;2.67;;
57947;SDS011;43754;56.992;24.292;2023-02-01T03:18:24;4.63;;;2.42;;
57947;SDS011;43754;56.992;24.292;2023-02-01T03:21:03;4.93;;;2.17;;
57947;SDS011;43754;56.992;24.292;2023-02-01T03:23:40;5.97;;;2.55;;
57947;SDS011;43754;56.992;24.292;2023-02-01T03:26:17;4.15;;;3.00;;
57947;SDS011;43754;56.992;24.292;2023-02-01T03:28:54;5.63;;;3.10;;
57947;SDS011;43754;56.992;24.292;2023-02-01T03:31:31;5.25;;;2.92;;
57947;SDS011;43754;56.992;24.292;2023-02-01T03:34:04;5.00;;;2.40;;
57947;SDS011;43754;56.992;24.292;2023-02-01T03:36:37;4.38;;;2.40;;
57947;SDS011;43754;56.992;24.292;2023-02-01T03:39:15;5.18;;;3.10;;
57947;SDS011;43754;56.992;24.292;2023-02-01T03:41:53;5.32;;;3.17;;
57947;SDS011;43754;56.992;24.292;2023-02-01T03:44:31;8.50;;;3.78;;
57947;SDS011;43754;56.992;24.292;2023-02-01T03:47:06;7.93;;;3.80;;
57947;SDS011;43754;56.992;24.292;2023-02-01T03:49:43;5.13;;;3.10;;
57947;SDS011;43754;56.992;24.292;2023-02-01T03:52:20;4.50;;;3.22;;
57947;SDS011;43754;56.992;24.292;2023-02-01T03:54:55;6.38;;;3.95;;
57947;SDS011;43754;56.992;24.292;2023-02-01T03:57:31;5.85;;;3.72;;
57947;SDS011;43754;56.992;24.292;2023-02-01T04:00:08;7.38;;;4.20;;
57947;SDS011;43754;56.992;24.292;2023-02-01T04:02:45;8.07;;;4.03;;
57947;SDS011;43754;56.992;24.292;2023-02-01T04:05:18;5.45;;;3.85;;
57947;SDS011;43754;56.992;24.292;2023-02-01T04:07:58;8.93;;;4.50;;
57947;SDS011;43754;56.992;24.292;2023-02-01T04:10:30;8.13;;;5.47;;
57947;SDS011;43754;56.992;24.292;2023-02-01T04:13:03;6.85;;;4.57;;
57947;SDS011;43754;56.992;24.292;2023-02-01T04:15:35;8.23;;;4.65;;
57947;SDS011;43754;56.992;24.292;2023-02-01T04:18:08;8.82;;;4.38;;
57947;SDS011;43754;56.992;24.292;2023-02-01T04:20:40;8.50;;;4.90;;
57947;SDS011;43754;56.992;24.292;2023-02-01T04:23:12;7.03;;;4.35;;
57947;SDS011;43754;56.992;24.292;2023-02-01T04:25:44;6.20;;;4.35;;
57947;SDS011;43754;56.992;24.292;2023-02-01T04:28:17;6.40;;;3.80;;
57947;SDS011;43754;56.992;24.292;2023-02-01T04:30:49;7.80;;;4.10;;
57947;SDS011;43754;56.992;24.292;2023-02-01T04:33:21;10.55;;;6.85;;
57947;SDS011;43754;56.992;24.292;2023-02-01T04:35:53;6.82;;;4.45;;
57947;SDS011;43754;56.992;24.292;2023-02-01T04:38:26;7.35;;;4.35;;
57947;SDS011;43754;56.992;24.292;2023-02-01T04:41:00;8.18;;;4.55;;
57947;SDS011;43754;56.992;24.292;2023-02-01T04:43:34;7.25;;;3.95;;
57947;SDS011;43754;56.992;24.292;2023-02-01T04:46:06;8.05;;;4.78;;
57947;SDS011;43754;56.992;24.292;2023-02-01T04:48:38;8.80;;;5.15;;
57947;SDS011;43754;56.992;24.292;2023-02-01T04:51:10;14.45;;;6.40;;
57947;SDS011;43754;56.992;24.292;2023-02-01T04:53:42;7.40;;;4.95;;
57947;SDS011;43754;56.992;24.292;2023-02-01T04:56:14;10.35;;;5.55;;
57947;SDS011;43754;56.992;24.292;2023-02-01T04:58:47;7.60;;;4.95;;
57947;SDS011;43754;56.992;24.292;2023-02-01T05:01:19;6.90;;;4.90;;
57947;SDS011;43754;56.992;24.292;2023-02-01T05:03:52;9.20;;;5.25;;
57947;SDS011;43754;56.992;24.292;2023-02-01T05:06:23;11.95;;;6.93;;
57947;SDS011;43754;56.992;24.292;2023-02-01T05:08:56;12.60;;;6.53;;
57947;SDS011;43754;56.992;24.292;2023-02-01T05:11:28;17.77;;;9.60;;
57947;SDS011;43754;56.992;24.292;2023-02-01T05:14:20;17.15;;;8.93;;
57947;SDS011;43754;56.992;24.292;2023-02-01T05:16:52;15.57;;;8.27;;
57947;SDS011;43754;56.992;24.292;2023-02-01T05:19:24;11.70;;;6.50;;
57947;SDS011;43754;56.992;24.292;2023-02-01T05:21:56;10.77;;;6.38;;
57947;SDS011;43754;56.992;24.292;2023-02-01T05:24:29;22.80;;;11.52;;
57947;SDS011;43754;56.992;24.292;2023-02-01T05:27:01;18.00;;;9.52;;
57947;SDS011;43754;56.992;24.292;2023-02-01T05:29:34;12.20;;;6.55;;
57947;SDS011;43754;56.992;24.292;2023-02-01T05:32:06;13.80;;;7.22;;
57947;SDS011;43754;56.992;24.292;2023-02-01T05:34:52;12.50;;;6.45;;
57947;SDS011;43754;56.992;24.292;2023-02-01T05:37:24;12.32;;;6.70;;
57947;SDS011;43754;56.992;24.292;2023-02-01T05:39:56;12.52;;;6.60;;
57947;SDS011;43754;56.992;24.292;2023-02-01T05:42:28;11.23;;;6.07;;
57947;SDS011;43754;56.992;24.292;2023-02-01T05:45:01;11.95;;;6.80;;
57947;SDS011;43754;56.992;24.292;2023-02-01T05:47:34;11.20;;;6.38;;
57947;SDS011;43754;56.992;24.292;2023-02-01T05:50:06;8.32;;;5.82;;
57947;SDS011;43754;56.992;24.292;2023-02-01T05:52:39;11.48;;;5.75;;
57947;SDS011;43754;56.992;24.292;2023-02-01T05:55:11;11.73;;;6.05;;
57947;SDS011;43754;56.992;24.292;2023-02-01T05:57:43;10.95;;;6.78;;
57947;SDS011;43754;56.992;24.292;2023-02-01T06:00:17;17.08;;;7.70;;
57947;SDS011;43754;56.992;24.292;2023-02-01T06:02:52;13.35;;;7.07;;
57947;SDS011;43754;56.992;24.292;2023-02-01T06:05:24;13.73;;;7.50;;
57947;SDS011;43754;56.992;24.292;2023-02-01T06:07:56;16.92;;;10.52;;
57947;SDS011;43754;56.992;24.292;2023-02-01T06:10:29;14.02;;;6.28;;
57947;SDS011;43754;56.992;24.292;2023-02-01T06:13:01;13.25;;;6.70;;
57947;SDS011;43754;56.992;24.292;2023-02-01T06:15:35;12.15;;;5.75;;
57947;SDS011;43754;56.992;24.292;2023-02-01T06:18:08;15.07;;;6.20;;
57947;SDS011;43754;56.992;24.292;2023-02-01T06:20:41;10.98;;;6.10;;
57947;SDS011;43754;56.992;24.292;2023-02-01T06:23:13;16.75;;;6.65;;
57947;SDS011;43754;56.992;24.292;2023-02-01T06:25:45;17.55;;;6.57;;
57947;SDS011;43754;56.992;24.292;2023-02-01T06:28:17;14.18;;;6.57;;
57947;SDS011;43754;56.992;24.292;2023-02-01T06:30:50;15.05;;;10.93;;
57947;SDS011;43754;56.992;24.292;2023-02-01T06:33:22;13.55;;;8.07;;
57947;SDS011;43754;56.992;24.292;2023-02-01T06:35:58;16.05;;;10.50;;
57947;SDS011;43754;56.992;24.292;2023-02-01T06:38:31;21.70;;;15.93;;
57947;SDS011;43754;56.992;24.292;2023-02-01T06:41:07;15.88;;;9.80;;
57947;SDS011;43754;56.992;24.292;2023-02-01T06:43:40;22.85;;;11.25;;
57947;SDS011;43754;56.992;24.292;2023-02-01T06:46:14;18.58;;;10.65;;
57947;SDS011;43754;56.992;24.292;2023-02-01T06:48:46;17.83;;;10.73;;
57947;SDS011;43754;56.992;24.292;2023-02-01T06:51:22;13.48;;;8.23;;
57947;SDS011;43754;56.992;24.292;2023-02-01T06:53:55;22.05;;;10.88;;
57947;SDS011;43754;56.992;24.292;2023-02-01T06:56:28;27.27;;;14.80;;
57947;SDS011;43754;56.992;24.292;2023-02-01T06:59:01;21.75;;;11.70;;
57947;SDS011;43754;56.992;24.292;2023-02-01T07:01:36;26.08;;;15.07;;
57947;SDS011;43754;56.992;24.292;2023-02-01T07:04:09;29.92;;;15.32;;
57947;SDS011;43754;56.992;24.292;2023-02-01T07:06:42;20.17;;;11.05;;
57947;SDS011;43754;56.992;24.292;2023-02-01T07:09:14;23.27;;;12.02;;
57947;SDS011;43754;56.992;24.292;2023-02-01T07:11:46;25.55;;;12.32;;
57947;SDS011;43754;56.992;24.292;2023-02-01T07:14:18;17.05;;;9.18;;
57947;SDS011;43754;56.992;24.292;2023-02-01T07:16:51;18.25;;;10.32;;
57947;SDS011;43754;56.992;24.292;2023-02-01T07:19:23;15.13;;;7.85;;
57947;SDS011;43754;56.992;24.292;2023-02-01T07:21:55;15.35;;;8.13;;
57947;SDS011;43754;56.992;24.292;2023-02-01T07:24:27;17.17;;;8.35;;
57947;SDS011;43754;56.992;24.292;2023-02-01T07:26:59;13.60;;;7.65;;
57947;SDS011;43754;56.992;24.292;2023-02-01T07:29:31;14.82;;;9.32;;
57947;SDS011;43754;56.992;24.292;2023-02-01T07:32:05;14.00;;;8.15;;
57947;SDS011;43754;56.992;24.292;2023-02-01T07:34:37;14.77;;;8.30;;
57947;SDS011;43754;56.992;24.292;2023-02-01T07:37:09;16.30;;;8.70;;
57947;SDS011;43754;56.992;24.292;2023-02-01T07:39:41;21.30;;;12.20;;
57947;SDS011;43754;56.992;24.292;2023-02-01T07:42:13;15.88;;;9.68;;
57947;SDS011;43754;56.992;24.292;2023-02-01T07:44:45;15.52;;;8.23;;
57947;SDS011;43754;56.992;24.292;2023-02-01T07:47:18;15.75;;;8.10;;
57947;SDS011;43754;56.992;24.292;2023-02-01T07:49:51;20.05;;;9.77;;
57947;SDS011;43754;56.992;24.292;2023-02-01T07:52:23;25.27;;;12.45;;
57947;SDS011;43754;56.992;24.292;2023-02-01T07:54:55;16.88;;;8.02;;
57947;SDS011;43754;56.992;24.292;2023-02-01T07:57:27;15.40;;;7.53;;
57947;SDS011;43754;56.992;24.292;2023-02-01T07:59:59;18.02;;;8.05;;
57947;SDS011;43754;56.992;24.292;2023-02-01T08:02:51;15.57;;;7.78;;
57947;SDS011;43754;56.992;24.292;2023-02-01T08:05:23;16.10;;;7.50;;
57947;SDS011;43754;56.992;24.292;2023-02-01T08:07:55;14.45;;;7.13;;
57947;SDS011;43754;56.992;24.292;2023-02-01T08:10:27;15.23;;;7.60;;
57947;SDS011;43754;56.992;24.292;2023-02-01T08:12:59;15.85;;;8.00;;
57947;SDS011;43754;56.992;24.292;2023-02-01T08:15:31;17.05;;;9.50;;
57947;SDS011;43754;56.992;24.292;2023-02-01T08:18:05;19.02;;;7.50;;
57947;SDS011;43754;56.992;24.292;2023-02-01T08:20:37;15.95;;;7.90;;
57947;SDS011;43754;56.992;24.292;2023-02-01T08:23:12;16.45;;;7.93;;
57947;SDS011;43754;56.992;24.292;2023-02-01T08:25:44;12.13;;;7.90;;
57947;SDS011;43754;56.992;24.292;2023-02-01T08:28:16;13.65;;;7.90;;
57947;SDS011;43754;56.992;24.292;2023-02-01T08:30:48;9.98;;;5.72;;
57947;SDS011;43754;56.992;24.292;2023-02-01T08:33:21;16.05;;;6.57;;
57947;SDS011;43754;56.992;24.292;2023-02-01T08:35:53;12.95;;;5.38;;
57947;SDS011;43754;56.992;24.292;2023-02-01T08:38:25;17.75;;;8.57;;
57947;SDS011;43754;56.992;24.292;2023-02-01T08:40:57;17.55;;;9.10;;
57947;SDS011;43754;56.992;24.292;2023-02-01T08:43:35;16.88;;;8.02;;
57947;SDS011;43754;56.992;24.292;2023-02-01T08:46:07;16.83;;;7.40;;
57947;SDS011;43754;56.992;24.292;2023-02-01T08:48:42;23.02;;;10.55;;
57947;SDS011;43754;56.992;24.292;2023-02-01T08:51:15;22.02;;;11.02;;
57947;SDS011;43754;56.992;24.292;2023-02-01T08:53:49;30.35;;;14.23;;
57947;SDS011;43754;56.992;24.292;2023-02-01T08:56:21;27.13;;;11.80;;
57947;SDS011;43754;56.992;24.292;2023-02-01T08:58:53;27.33;;;11.68;;
57947;SDS011;43754;56.992;24.292;2023-02-01T09:01:25;25.35;;;10.30;;
57947;SDS011;43754;56.992;24.292;2023-02-01T09:03:58;16.05;;;9.20;;
57947;SDS011;43754;56.992;24.292;2023-02-01T09:06:30;22.40;;;10.73;;
57947;SDS011;43754;56.992;24.292;2023-02-01T09:09:02;18.38;;;9.48;;
57947;SDS011;43754;56.992;24.292;2023-02-01T09:11:34;24.67;;;11.60;;
57947;SDS011;43754;56.992;24.292;2023-02-01T09:14:06;18.20;;;10.30;;
57947;SDS011;43754;56.992;24.292;2023-02-01T09:16:38;18.58;;;9.60;;
57947;SDS011;43754;56.992;24.292;2023-02-01T09:19:12;14.93;;;8.85;;
57947;SDS011;43754;56.992;24.292;2023-02-01T09:21:56;14.00;;;7.88;;
57947;SDS011;43754;56.992;24.292;2023-02-01T09:24:28;18.35;;;9.30;;
57947;SDS011;43754;56.992;24.292;2023-02-01T09:27:00;17.42;;;9.15;;
57947;SDS011;43754;56.992;24.292;2023-02-01T09:29:32;18.85;;;9.18;;
57947;SDS011;43754;56.992;24.292;2023-02-01T09:32:04;20.42;;;10.80;;
57947;SDS011;43754;56.992;24.292;2023-02-01T09:34:39;21.52;;;11.20;;
57947;SDS011;43754;56.992;24.292;2023-02-01T09:37:11;27.75;;;12.30;;
57947;SDS011;43754;56.992;24.292;2023-02-01T09:39:43;25.92;;;12.60;;
57947;SDS011;43754;56.992;24.292;2023-02-01T09:42:21;24.95;;;12.57;;
57947;SDS011;43754;56.992;24.292;2023-02-01T09:45:20;25.45;;;12.15;;
57947;SDS011;43754;56.992;24.292;2023-02-01T09:47:59;22.77;;;10.70;;
57947;SDS011;43754;56.992;24.292;2023-02-01T09:50:36;27.52;;;12.02;;
57947;SDS011;43754;56.992;24.292;2023-02-01T09:53:12;31.30;;;15.38;;
57947;SDS011;43754;56.992;24.292;2023-02-01T09:55:50;17.35;;;8.18;;
57947;SDS011;43754;56.992;24.292;2023-02-01T09:58:25;20.92;;;9.60;;
57947;SDS011;43754;56.992;24.292;2023-02-01T10:01:02;17.50;;;9.05;;
57947;SDS011;43754;56.992;24.292;2023-02-01T10:03:36;15.65;;;9.20;;
57947;SDS011;43754;56.992;24.292;2023-02-01T10:06:23;16.23;;;9.05;;
57947;SDS011;43754;56.992;24.292;2023-02-01T10:09:19;13.90;;;8.57;;
57947;SDS011;43754;56.992;24.292;2023-02-01T10:12:20;16.75;;;8.52;;
57947;SDS011;43754;56.992;24.292;2023-02-01T10:15:15;13.13;;;6.68;;
57947;SDS011;43754;56.992;24.292;2023-02-01T10:18:00;14.57;;;7.65;;
57947;SDS011;43754;56.992;24.292;2023-02-01T10:20:56;11.02;;;7.45;;
57947;SDS011;43754;56.992;24.292;2023-02-01T10:26:47;15.05;;;7.78;;
57947;SDS011;43754;56.992;24.292;2023-02-01T10:29:28;10.48;;;6.78;;
57947;SDS011;43754;56.992;24.292;2023-02-01T10:32:11;11.82;;;7.38;;
57947;SDS011;43754;56.992;24.292;2023-02-01T10:34:46;11.32;;;6.25;;
57947;SDS011;43754;56.992;24.292;2023-02-01T10:37:29;12.27;;;7.53;;
57947;SDS011;43754;56.992;24.292;2023-02-01T10:40:08;10.52;;;7.65;;
57947;SDS011;43754;56.992;24.292;2023-02-01T10:57:26;10.23;;;8.02;;
57947;SDS011;43754;56.992;24.292;2023-02-01T11:00:02;8.73;;;6.65;;
57947;SDS011;43754;56.992;24.292;2023-02-01T11:02:35;8.95;;;6.30;;
57947;SDS011;43754;56.992;24.292;2023-02-01T11:05:08;13.43;;;6.82;;
57947;SDS011;43754;56.992;24.292;2023-02-01T11:07:45;9.70;;;6.07;;
57947;SDS011;43754;56.992;24.292;2023-02-01T11:10:36;9.30;;;5.80;;
57947;SDS011;43754;56.992;24.292;2023-02-01T11:13:13;10.85;;;7.45;;
57947;SDS011;43754;56.992;24.292;2023-02-01T11:15:54;9.48;;;6.63;;
57947;SDS011;43754;56.992;24.292;2023-02-01T11:18:28;12.00;;;6.95;;
57947;SDS011;43754;56.992;24.292;2023-02-01T11:21:02;12.88;;;7.05;;
57947;SDS011;43754;56.992;24.292;2023-02-01T11:23:39;15.38;;;9.75;;
57947;SDS011;43754;56.992;24.292;2023-02-01T11:26:14;12.32;;;7.80;;
57947;SDS011;43754;56.992;24.292;2023-02-01T11:28:56;13.63;;;8.55;;
57947;SDS011;43754;56.992;24.292;2023-02-01T11:31:30;14.00;;;7.68;;
57947;SDS011;43754;56.992;24.292;2023-02-01T11:34:06;15.60;;;8.65;;
57947;SDS011;43754;56.992;24.292;2023-02-01T11:36:42;13.10;;;8.25;;
57947;SDS011;43754;56.992;24.292;2023-02-01T11:39:18;9.35;;;6.60;;
57947;SDS011;43754;56.992;24.292;2023-02-01T11:41:58;14.50;;;8.90;;
57947;SDS011;43754;56.992;24.292;2023-02-01T11:44:35;14.18;;;8.40;;
57947;SDS011;43754;56.992;24.292;2023-02-01T11:47:18;11.73;;;8.82;;
57947;SDS011;43754;56.992;24.292;2023-02-01T11:49:55;9.30;;;7.15;;
57947;SDS011;43754;56.992;24.292;2023-02-01T11:52:35;43.00;;;22.08;;
57947;SDS011;43754;56.992;24.292;2023-02-01T11:58:18;67.03;;;27.85;;
57947;SDS011;43754;56.992;24.292;2023-02-01T12:01:15;77.05;;;34.00;;
57947;SDS011;43754;56.992;24.292;2023-02-01T12:04:18;68.88;;;28.70;;
57947;SDS011;43754;56.992;24.292;2023-02-01T12:07:13;68.70;;;28.90;;
57947;SDS011;43754;56.992;24.292;2023-02-01T12:09:53;77.05;;;28.02;;
57947;SDS011;43754;56.992;24.292;2023-02-01T12:12:38;56.95;;;28.50;;
57947;SDS011;43754;56.992;24.292;2023-02-01T12:15:20;55.10;;;27.65;;
57947;SDS011;43754;56.992;24.292;2023-02-01T12:18:08;120.43;;;58.15;;
57947;SDS011;43754;56.992;24.292;2023-02-01T12:21:05;33.20;;;18.83;;
57947;SDS011;43754;56.992;24.292;2023-02-01T12:23:47;30.50;;;17.23;;
57947;SDS011;43754;56.992;24.292;2023-02-01T12:26:45;31.50;;;27.43;;
57947;SDS011;43754;56.992;24.292;2023-02-01T12:29:30;30.15;;;23.40;;
57947;SDS011;43754;56.992;24.292;2023-02-01T12:32:14;16.58;;;10.02;;
57947;SDS011;43754;56.992;24.292;2023-02-01T12:35:08;11.57;;;8.25;;
57947;SDS011;43754;56.992;24.292;2023-02-01T12:37:56;23.25;;;14.00;;
57947;SDS011;43754;56.992;24.292;2023-02-01T12:40:52;29.08;;;23.05;;
57947;SDS011;43754;56.992;24.292;2023-02-01T12:43:38;21.52;;;12.88;;
57947;SDS011;43754;56.992;24.292;2023-02-01T12:46:14;16.63;;;10.82;;
57947;SDS011;43754;56.992;24.292;2023-02-01T12:48:50;14.82;;;9.90;;
57947;SDS011;43754;56.992;24.292;2023-02-01T12:51:29;16.30;;;11.07;;
57947;SDS011;43754;56.992;24.292;2023-02-01T12:54:09;13.10;;;8.90;;
57947;SDS011;43754;56.992;24.292;2023-02-01T12:56:46;15.15;;;10.65;;
57947;SDS011;43754;56.992;24.292;2023-02-01T12:59:24;15.50;;;8.50;;
57947;SDS011;43754;56.992;24.292;2023-02-01T13:02:01;17.70;;;11.38;;
57947;SDS011;43754;56.992;24.292;2023-02-01T13:04:49;18.73;;;12.23;;
57947;SDS011;43754;56.992;24.292;2023-02-01T13:07:28;14.57;;;9.98;;
57947;SDS011;43754;56.992;24.292;2023-02-01T13:10:11;15.10;;;8.60;;
57947;SDS011;43754;56.992;24.292;2023-02-01T13:12:49;15.55;;;9.30;;
57947;SDS011;43754;56.992;24.292;2023-02-01T13:15:26;21.23;;;12.20;;
57947;SDS011;43754;56.992;24.292;2023-02-01T13:18:01;12.50;;;8.90;;
57947;SDS011;43754;56.992;24.292;2023-02-01T13:20:37;18.63;;;11.93;;
57947;SDS011;43754;56.992;24.292;2023-02-01T13:23:21;16.85;;;9.52;;
57947;SDS011;43754;56.992;24.292;2023-02-01T13:25:57;16.20;;;10.32;;
57947;SDS011;43754;56.992;24.292;2023-02-01T13:28:30;20.45;;;12.57;;
57947;SDS011;43754;56.992;24.292;2023-02-01T13:31:23;13.65;;;9.57;;
57947;SDS011;43754;56.992;24.292;2023-02-01T13:34:26;13.57;;;9.02;;
57947;SDS011;43754;56.992;24.292;2023-02-01T13:37:18;16.75;;;10.80;;
57947;SDS011;43754;56.992;24.292;2023-02-01T13:40:12;18.17;;;11.52;;
57947;SDS011;43754;56.992;24.292;2023-02-01T13:42:54;15.40;;;10.27;;
57947;SDS011;43754;56.992;24.292;2023-02-01T13:45:29;15.18;;;8.90;;
57947;SDS011;43754;56.992;24.292;2023-02-01T13:48:04;15.82;;;10.00;;
57947;SDS011;43754;56.992;24.292;2023-02-01T13:50:38;15.82;;;9.90;;
57947;SDS011;43754;56.992;24.292;2023-02-01T13:53:14;13.65;;;9.20;;
57947;SDS011;43754;56.992;24.292;2023-02-01T13:55:55;21.48;;;11.80;;
57947;SDS011;43754;56.992;24.292;2023-02-01T13:58:31;14.23;;;9.32;;
57947;SDS011;43754;56.992;24.292;2023-02-01T14:04:44;18.65;;;12.23;;
57947;SDS011;43754;56.992;24.292;2023-02-01T14:07:19;15.27;;;9.85;;
57947;SDS011;43754;56.992;24.292;2023-02-01T14:09:53;14.93;;;8.63;;
57947;SDS011;43754;56.992;24.292;2023-02-01T14:15:21;11.40;;;7.80;;
57947;SDS011;43754;56.992;24.292;2023-02-01T14:17:56;12.57;;;7.70;;
57947;SDS011;43754;56.992;24.292;2023-02-01T14:23:19;13.00;;;8.32;;
57947;SDS011;43754;56.992;24.292;2023-02-01T14:28:56;14.50;;;7.07;;
57947;SDS011;43754;56.992;24.292;2023-02-01T14:31:32;10.45;;;6.57;;
57947;SDS011;43754;56.992;24.292;2023-02-01T14:34:18;7.82;;;4.95;;
57947;SDS011;43754;56.992;24.292;2023-02-01T14:36:56;6.15;;;5.10;;
57947;SDS011;43754;56.992;24.292;2023-02-01T14:39:32;9.43;;;7.10;;
57947;SDS011;43754;56.992;24.292;2023-02-01T14:42:18;11.20;;;7.22;;
57947;SDS011;43754;56.992;24.292;2023-02-01T14:45:45;6.88;;;5.60;;
57947;SDS011;43754;56.992;24.292;2023-02-01T14:51:13;10.85;;;6.80;;
57947;SDS011;43754;56.992;24.292;2023-02-01T14:53:47;18.05;;;11.65;;
57947;SDS011;43754;56.992;24.292;2023-02-01T14:56:22;10.63;;;8.45;;
57947;SDS011;43754;56.992;24.292;2023-02-01T14:58:59;11.20;;;8.05;;
57947;SDS011;43754;56.992;24.292;2023-02-01T15:01:39;18.50;;;12.38;;
57947;SDS011;43754;56.992;24.292;2023-02-01T15:04:24;22.42;;;14.43;;
57947;SDS011;43754;56.992;24.292;2023-02-01T15:06:58;42.15;;;21.25;;
57947;SDS011;43754;56.992;24.292;2023-02-01T15:09:38;82.82;;;40.13;;
57947;SDS011;43754;56.992;24.292;2023-02-01T15:12:15;56.80;;;29.45;;
57947;SDS011;43754;56.992;24.292;2023-02-01T15:15:03;34.35;;;20.83;;
57947;SDS011;43754;56.992;24.292;2023-02-01T15:17:48;34.22;;;19.42;;
57947;SDS011;43754;56.992;24.292;2023-02-01T15:20:22;36.28;;;18.83;;
57947;SDS011;43754;56.992;24.292;2023-02-01T15:22:58;35.17;;;16.45;;
57947;SDS011;43754;56.992;24.292;2023-02-01T15:25:32;76.80;;;24.95;;
57947;SDS011;43754;56.992;24.292;2023-02-01T15:28:09;74.07;;;24.17;;
57947;SDS011;43754;56.992;24.292;2023-02-01T15:30:51;49.35;;;23.83;;
57947;SDS011;43754;56.992;24.292;2023-02-01T15:33:27;39.22;;;17.05;;
57947;SDS011;43754;56.992;24.292;2023-02-01T15:36:07;54.50;;;22.52;;
57947;SDS011;43754;56.992;24.292;2023-02-01T15:38:41;44.70;;;19.30;;
57947;SDS011;43754;56.992;24.292;2023-02-01T15:41:14;27.15;;;13.82;;
57947;SDS011;43754;56.992;24.292;2023-02-01T15:43:49;34.25;;;16.27;;
57947;SDS011;43754;56.992;24.292;2023-02-01T15:46:36;28.85;;;13.70;;
57947;SDS011;43754;56.992;24.292;2023-02-01T15:49:17;88.38;;;27.90;;
57947;SDS011;43754;56.992;24.292;2023-02-01T15:51:55;78.00;;;25.23;;
57947;SDS011;43754;56.992;24.292;2023-02-01T15:54:31;55.30;;;22.02;;
57947;SDS011;43754;56.992;24.292;2023-02-01T15:57:18;66.95;;;24.10;;
57947;SDS011;43754;56.992;24.292;2023-02-01T15:59:51;42.03;;;17.52;;
57947;SDS011;43754;56.992;24.292;2023-02-01T16:02:28;34.70;;;17.00;;
57947;SDS011;43754;56.992;24.292;2023-02-01T16:05:06;36.83;;;17.85;;
57947;SDS011;43754;56.992;24.292;2023-02-01T16:08:03;31.90;;;17.45;;